Time;durP1;ratioP1;P1;durP2;ratioP2;P2;SDS_P1;SDS_P2;PMS_P1;PMS_P2;Temp;Humidity;BMP_temperature;BMP_pressure;BME280_temperature;BME280_humidity;BME280_pressure;Samples;Min_cycle;Max_cycle;Signal;HPM_P1;HPM_P2
2022/03/13 00:00:25;;;;;;;270.00;120.18;;;;;;;;;;6222479;23;20005;-93
2022/03/13 00:02:52;;;;;;;272.48;122.90;;;;;;;;;;6101678;23;20297;-94
2022/03/13 00:05:19;;;;;;;266.33;117.38;;;;;;;;;;6101499;23;19998;-94
2022/03/13 00:10:50;;;;;;;247.93;109.80;;;;;;;;;;6103915;23;20058;-92
2022/03/13 00:13:19;;;;;;;249.48;109.47;;;;;;;;;;6073092;23;20015;-93
2022/03/13 00:15:45;;;;;;;259.52;115.90;;;;;;;;;;6073102;23;20015;-93
2022/03/13 00:18:12;;;;;;;252.75;116.28;;;;;;;;;;6072750;23;20299;-93
2022/03/13 00:20:39;;;;;;;260.60;116.13;;;;;;;;;;6072578;23;20003;-93
2022/03/13 00:23:06;;;;;;;266.88;115.50;;;;;;;;;;6048582;23;20018;-93
2022/03/13 00:25:33;;;;;;;250.80;115.72;;;;;;;;;;6072754;23;20011;-93
2022/03/13 00:27:59;;;;;;;268.13;122.85;;;;;;;;;;6072688;23;20078;-93
2022/03/13 00:30:25;;;;;;;280.92;127.25;;;;;;;;;;6072665;23;20030;-93
2022/03/13 00:32:52;;;;;;;325.45;138.52;;;;;;;;;;6048679;23;20420;-93
2022/03/13 00:35:18;;;;;;;303.35;135.38;;;;;;;;;;6072723;23;20367;-93
2022/03/13 00:43:51;;;;;;;361.77;154.45;;;;;;;;;;6191680;23;20008;-93
2022/03/13 00:46:17;;;;;;;331.95;145.88;;;;;;;;;;6191701;23;20009;-92
2022/03/13 00:48:43;;;;;;;305.00;135.75;;;;;;;;;;6191721;23;20054;-93
2022/03/13 00:51:09;;;;;;;300.67;134.77;;;;;;;;;;6192028;23;20016;-96
2022/03/13 00:54:13;;;;;;;301.27;135.05;;;;;;;;;;6165832;23;20012;-93
2022/03/13 00:56:39;;;;;;;289.45;129.60;;;;;;;;;;6191633;23;20009;-93
2022/03/13 00:59:05;;;;;;;263.50;121.70;;;;;;;;;;6191625;23;20013;-92
2022/03/13 01:01:32;;;;;;;249.57;116.38;;;;;;;;;;6192204;23;20252;-93
2022/03/13 01:03:58;;;;;;;235.95;110.60;;;;;;;;;;6191708;23;19994;-94
2022/03/13 01:06:25;;;;;;;230.65;108.07;;;;;;;;;;6165655;23;20005;-93
2022/03/13 01:08:52;;;;;;;241.68;111.10;;;;;;;;;;6191964;23;19993;-95
2022/03/13 01:11:20;;;;;;;234.88;111.38;;;;;;;;;;6191864;23;20044;-92
2022/03/13 01:13:46;;;;;;;209.20;98.47;;;;;;;;;;6179523;23;20012;-92
2022/03/13 01:16:12;;;;;;;212.95;99.13;;;;;;;;;;6195534;23;20093;-92
2022/03/13 01:18:47;;;;;;;215.20;99.93;;;;;;;;;;6222060;23;20298;-92
2022/03/13 01:21:14;;;;;;;203.63;95.18;;;;;;;;;;6222073;23;20001;-93
2022/03/13 01:23:40;;;;;;;223.80;104.78;;;;;;;;;;6195402;23;20057;-92
2022/03/13 01:26:27;;;;;;;224.80;106.13;;;;;;;;;;6195397;23;20184;-93
2022/03/13 01:28:58;;;;;;;199.13;93.50;;;;;;;;;;6195226;23;20005;-94
2022/03/13 01:31:31;;;;;;;178.82;83.00;;;;;;;;;;6221319;23;20004;-93
2022/03/13 01:33:58;;;;;;;186.38;86.68;;;;;;;;;;6195000;23;20367;-94
2022/03/13 01:36:24;;;;;;;180.02;85.57;;;;;;;;;;6221188;23;20006;-91
2022/03/13 01:38:54;;;;;;;171.63;80.80;;;;;;;;;;6221672;23;20008;-92
2022/03/13 01:41:21;;;;;;;166.85;79.55;;;;;;;;;;6221884;23;20161;-92
2022/03/13 01:43:48;;;;;;;160.02;75.85;;;;;;;;;;6221892;23;20339;-94
2022/03/13 01:46:14;;;;;;;155.15;73.55;;;;;;;;;;6221829;23;20025;-94
2022/03/13 01:48:56;;;;;;;144.02;69.72;;;;;;;;;;6221636;23;20004;-93
2022/03/13 01:51:22;;;;;;;156.40;70.95;;;;;;;;;;6221086;23;20007;-92
2022/03/13 01:53:52;;;;;;;136.75;67.40;;;;;;;;;;6220752;23;20001;-94
2022/03/13 01:56:18;;;;;;;141.60;67.43;;;;;;;;;;6222689;23;20263;-95
2022/03/13 01:58:45;;;;;;;128.93;62.72;;;;;;;;;;6222422;23;19996;-96
2022/03/13 02:01:13;;;;;;;133.48;60.30;;;;;;;;;;6222418;23;19996;-96
2022/03/13 02:03:39;;;;;;;130.95;59.65;;;;;;;;;;6223093;23;20411;-94
2022/03/13 02:06:05;;;;;;;148.52;66.07;;;;;;;;;;6221207;23;20005;-92
2022/03/13 02:08:31;;;;;;;133.40;62.88;;;;;;;;;;6194370;23;20111;-93
2022/03/13 02:10:59;;;;;;;127.00;63.35;;;;;;;;;;6194303;23;20015;-93
2022/03/13 02:13:26;;;;;;;123.38;59.08;;;;;;;;;;6220870;23;20024;-93
2022/03/13 02:15:53;;;;;;;105.22;52.10;;;;;;;;;;6194510;23;20012;-94
2022/03/13 02:18:19;;;;;;;99.57;49.80;;;;;;;;;;6220982;23;20417;-94
2022/03/13 02:20:46;;;;;;;103.13;49.22;;;;;;;;;;6221200;23;20004;-92
2022/03/13 02:23:21;;;;;;;103.88;50.67;;;;;;;;;;6221035;23;20004;-93
2022/03/13 02:25:52;;;;;;;105.22;48.60;;;;;;;;;;6195003;23;20004;-94
2022/03/13 02:28:23;;;;;;;101.53;51.42;;;;;;;;;;6221382;23;20009;-94
2022/03/13 02:30:50;;;;;;;118.30;52.67;;;;;;;;;;6220950;23;20360;-93
2022/03/13 02:33:17;;;;;;;106.97;50.83;;;;;;;;;;6220961;23;20005;-93
2022/03/13 02:35:48;;;;;;;95.93;46.42;;;;;;;;;;6221325;23;20055;-94
2022/03/13 02:41:18;;;;;;;90.55;45.83;;;;;;;;;;6221242;23;20354;-93
2022/03/13 02:43:44;;;;;;;92.65;46.00;;;;;;;;;;6220899;23;20001;-93
2022/03/13 02:46:19;;;;;;;99.15;48.00;;;;;;;;;;6195078;23;20382;-94
2022/03/13 02:48:45;;;;;;;94.93;46.03;;;;;;;;;;6221050;23;20134;-94
2022/03/13 02:51:11;;;;;;;98.28;45.15;;;;;;;;;;6170226;23;20019;-94
2022/03/13 02:53:39;;;;;;;89.30;44.05;;;;;;;;;;6220768;23;20008;-93
2022/03/13 02:56:06;;;;;;;92.68;45.35;;;;;;;;;;6220692;23;20023;-92
2022/03/13 02:58:32;;;;;;;84.95;43.40;;;;;;;;;;6220824;23;20395;-92
2022/03/13 03:00:59;;;;;;;86.07;43.75;;;;;;;;;;6220108;23;20001;-93
2022/03/13 03:03:25;;;;;;;88.78;43.22;;;;;;;;;;6221071;23;20005;-93
2022/03/13 03:05:51;;;;;;;85.28;43.28;;;;;;;;;;6221178;23;20016;-93
2022/03/13 03:11:21;;;;;;;81.68;42.05;;;;;;;;;;6221526;23;20088;-93
2022/03/13 03:13:49;;;;;;;88.28;43.60;;;;;;;;;;6222329;23;20021;-92
2022/03/13 03:16:15;;;;;;;87.50;40.90;;;;;;;;;;6223224;23;20012;-93
2022/03/13 03:18:43;;;;;;;83.40;40.20;;;;;;;;;;6222981;23;20000;-93
2022/03/13 03:39:06;;;;;;;120.20;50.20;;;;;;;;;;6193338;23;20036;-93
2022/03/13 03:41:37;;;;;;;87.82;40.92;;;;;;;;;;6189748;23;20017;-93
2022/03/13 03:44:03;;;;;;;93.53;40.97;;;;;;;;;;6166585;23;20092;-92
2022/03/13 03:46:30;;;;;;;91.72;43.70;;;;;;;;;;6192521;23;20005;-93
2022/03/13 06:06:16;;;;;;;215.40;102.70;;;;;;;;;;6212017;23;20265;-92
2022/03/13 06:08:43;;;;;;;211.85;92.88;;;;;;;;;;6194974;23;20054;-94
2022/03/13 06:11:09;;;;;;;245.27;107.03;;;;;;;;;;6194552;23;20000;-94
2022/03/13 06:13:35;;;;;;;289.20;123.22;;;;;;;;;;6195153;23;20043;-94
2022/03/13 06:16:01;;;;;;;214.23;96.38;;;;;;;;;;6194799;23;20005;-93
2022/03/13 06:18:28;;;;;;;212.07;97.05;;;;;;;;;;6221309;23;20108;-92
2022/03/13 06:20:54;;;;;;;280.02;124.60;;;;;;;;;;6194914;23;20363;-92
2022/03/13 06:23:20;;;;;;;237.95;110.13;;;;;;;;;;6195059;23;20004;-93
2022/03/13 06:28:49;;;;;;;;;;;;;;;;;;6221639;23;20015;-94
2022/03/13 06:31:16;;;;;;;150.95;70.03;;;;;;;;;;6221289;23;20220;-93
2022/03/13 06:33:42;;;;;;;121.00;61.88;;;;;;;;;;6221205;23;20005;-93
2022/03/13 06:36:08;;;;;;;200.55;85.72;;;;;;;;;;6221326;23;20064;-92
2022/03/13 06:38:34;;;;;;;215.10;96.78;;;;;;;;;;6221213;23;20288;-93
2022/03/13 06:44:04;;;;;;;151.15;70.43;;;;;;;;;;6221164;23;20003;-93
2022/03/13 06:46:30;;;;;;;166.18;74.68;;;;;;;;;;6222089;23;20281;-93
2022/03/13 06:48:56;;;;;;;172.10;79.93;;;;;;;;;;6197287;23;20241;-92
2022/03/13 06:51:22;;;;;;;168.52;79.70;;;;;;;;;;6222972;23;20430;-91
2022/03/13 06:56:52;;;;;;;151.05;74.75;;;;;;;;;;6222840;23;20043;-90
2022/03/13 06:59:18;;;;;;;131.88;69.43;;;;;;;;;;6223034;23;20031;-91
2022/03/13 07:01:44;;;;;;;127.63;62.40;;;;;;;;;;6223167;23;20252;-91
2022/03/13 07:04:12;;;;;;;106.63;57.65;;;;;;;;;;6223189;23;20087;-91
2022/03/13 07:06:38;;;;;;;103.30;52.03;;;;;;;;;;6222770;23;20012;-91
2022/03/13 07:09:04;;;;;;;107.32;52.28;;;;;;;;;;6196596;23;20043;-90
2022/03/13 07:11:34;;;;;;;105.22;54.38;;;;;;;;;;6222906;23;19997;-92
2022/03/13 07:14:02;;;;;;;99.53;51.65;;;;;;;;;;6196720;23;20421;-92
2022/03/13 07:16:28;;;;;;;95.80;50.45;;;;;;;;;;6195818;23;20015;-93
2022/03/13 07:18:54;;;;;;;143.55;67.82;;;;;;;;;;6222700;23;20005;-92
2022/03/13 07:21:20;;;;;;;153.15;70.22;;;;;;;;;;6222624;23;20020;-93
2022/03/13 07:23:46;;;;;;;119.13;57.70;;;;;;;;;;6196447;23;20001;-91
2022/03/13 07:26:14;;;;;;;98.95;53.15;;;;;;;;;;6222544;23;19996;-92
2022/03/13 07:28:40;;;;;;;117.47;59.33;;;;;;;;;;6222887;23;20001;-90
2022/03/13 07:31:06;;;;;;;118.80;58.75;;;;;;;;;;6222484;23;20005;-92
2022/03/13 07:33:32;;;;;;;125.20;61.97;;;;;;;;;;6195924;23;20019;-91
2022/03/13 07:35:58;;;;;;;125.97;62.88;;;;;;;;;;6222209;23;20032;-92
2022/03/13 07:38:24;;;;;;;126.30;61.10;;;;;;;;;;6222774;23;20008;-92
2022/03/13 07:40:51;;;;;;;136.20;63.38;;;;;;;;;;6222372;23;20005;-91
2022/03/13 07:43:17;;;;;;;148.52;65.88;;;;;;;;;;6222541;23;19992;-92
2022/03/13 07:45:43;;;;;;;115.70;58.53;;;;;;;;;;6222660;23;20000;-90
2022/03/13 07:48:09;;;;;;;110.00;54.47;;;;;;;;;;6222635;23;20004;-91
2022/03/13 07:50:35;;;;;;;99.72;51.97;;;;;;;;;;6222840;23;20072;-91
2022/03/13 07:53:01;;;;;;;98.95;50.15;;;;;;;;;;6222430;23;20040;-91
2022/03/13 07:55:27;;;;;;;96.70;48.88;;;;;;;;;;6221984;23;20005;-91
2022/03/13 07:57:54;;;;;;;84.88;45.55;;;;;;;;;;6221874;23;20001;-91
2022/03/13 08:00:22;;;;;;;81.50;43.97;;;;;;;;;;6195934;23;20390;-91
2022/03/13 08:02:48;;;;;;;93.00;46.58;;;;;;;;;;6195294;23;20058;-90
2022/03/13 08:05:15;;;;;;;77.15;42.05;;;;;;;;;;6222926;23;20020;-91
2022/03/13 08:07:41;;;;;;;82.13;41.97;;;;;;;;;;6222348;23;20003;-92
2022/03/13 08:10:08;;;;;;;76.13;38.95;;;;;;;;;;6222225;23;20005;-93
2022/03/13 08:12:34;;;;;;;71.47;37.15;;;;;;;;;;6195701;23;20004;-92
2022/03/13 08:15:01;;;;;;;60.72;30.98;;;;;;;;;;6222294;23;20005;-92
2022/03/13 08:17:27;;;;;;;50.88;28.52;;;;;;;;;;6222132;23;20047;-92
2022/03/13 08:19:56;;;;;;;46.58;27.65;;;;;;;;;;6222197;23;20252;-90
2022/03/13 08:22:23;;;;;;;50.45;26.92;;;;;;;;;;6222441;23;20256;-91
2022/03/13 08:24:49;;;;;;;38.83;22.73;;;;;;;;;;6196265;23;19997;-90
2022/03/13 08:27:15;;;;;;;37.03;22.38;;;;;;;;;;6222036;23;20032;-89
2022/03/13 08:29:41;;;;;;;37.83;20.15;;;;;;;;;;6221679;23;20015;-91
2022/03/13 08:32:08;;;;;;;38.15;20.67;;;;;;;;;;6195998;23;20008;-89
2022/03/13 08:34:34;;;;;;;30.90;18.42;;;;;;;;;;6221673;23;20071;-90
2022/03/13 08:37:01;;;;;;;42.05;22.75;;;;;;;;;;6195695;23;20015;-92
2022/03/13 08:39:27;;;;;;;36.58;20.63;;;;;;;;;;6221997;23;20001;-91
2022/03/13 08:41:53;;;;;;;40.95;19.60;;;;;;;;;;6221813;23;19997;-91
2022/03/13 08:44:19;;;;;;;29.85;17.23;;;;;;;;;;6222046;23;20011;-91
2022/03/13 08:46:45;;;;;;;30.63;17.02;;;;;;;;;;6222030;23;20059;-91
2022/03/13 08:49:13;;;;;;;26.30;16.13;;;;;;;;;;6221377;23;20007;-90
2022/03/13 08:51:39;;;;;;;30.90;15.50;;;;;;;;;;6195652;23;20451;-90
2022/03/13 09:00:14;;;;;;;26.95;15.43;;;;;;;;;;6221402;23;20011;-90
2022/03/13 09:02:40;;;;;;;23.85;13.57;;;;;;;;;;6221904;23;20005;-92
2022/03/13 09:05:07;;;;;;;42.42;21.05;;;;;;;;;;6194748;23;20021;-91
2022/03/13 09:07:34;;;;;;;35.35;18.20;;;;;;;;;;6195164;23;20036;-89
2022/03/13 09:13:37;;;;;;;23.17;13.15;;;;;;;;;;6221489;23;19999;-92
2022/03/13 09:16:04;;;;;;;28.48;14.95;;;;;;;;;;6221258;23;20028;-89
2022/03/13 09:18:30;;;;;;;92.30;33.90;;;;;;;;;;6195096;23;20081;-89
2022/03/13 09:20:57;;;;;;;82.50;30.15;;;;;;;;;;6222066;23;20007;-90
2022/03/13 09:23:23;;;;;;;28.48;15.73;;;;;;;;;;6221682;23;19997;-90
2022/03/13 09:26:08;;;;;;;26.23;15.40;;;;;;;;;;6221673;23;20000;-90
2022/03/13 09:28:34;;;;;;;25.27;12.60;;;;;;;;;;6221272;23;20005;-89
2022/03/13 09:31:01;;;;;;;22.52;13.57;;;;;;;;;;6221399;23;20084;-91
2022/03/13 09:33:27;;;;;;;23.58;13.93;;;;;;;;;;6194614;23;20011;-92
2022/03/13 09:35:54;;;;;;;20.23;13.10;;;;;;;;;;6195076;23;20015;-90
2022/03/13 09:38:20;;;;;;;21.73;14.48;;;;;;;;;;6220664;23;20004;-90
2022/03/13 09:41:23;;;;;;;24.80;13.93;;;;;;;;;;6194469;23;20000;-91
2022/03/13 09:43:49;;;;;;;22.98;13.45;;;;;;;;;;6221391;23;20001;-91
2022/03/13 09:46:19;;;;;;;25.42;13.93;;;;;;;;;;6194101;23;20356;-91
2022/03/13 09:48:45;;;;;;;24.45;14.93;;;;;;;;;;6220835;23;20020;-90
2022/03/13 09:51:11;;;;;;;22.17;13.30;;;;;;;;;;6194725;23;20015;-89
2022/03/13 09:53:38;;;;;;;24.10;14.60;;;;;;;;;;6221166;23;20005;-92
2022/03/13 09:56:05;;;;;;;25.73;13.73;;;;;;;;;;6221624;23;20008;-92
2022/03/13 09:58:32;;;;;;;23.15;13.85;;;;;;;;;;6220970;23;20008;-89
2022/03/13 10:00:58;;;;;;;26.92;14.05;;;;;;;;;;6195084;23;20004;-89
2022/03/13 10:03:24;;;;;;;21.48;13.13;;;;;;;;;;6221378;23;20000;-89
2022/03/13 10:05:51;;;;;;;28.98;17.50;;;;;;;;;;6220947;23;20017;-91
2022/03/13 10:08:18;;;;;;;23.50;13.82;;;;;;;;;;6220614;23;20020;-90
2022/03/13 10:14:24;;;;;;;26.88;13.85;;;;;;;;;;6220997;23;20023;-90
2022/03/13 10:16:50;;;;;;;24.17;14.50;;;;;;;;;;6220871;23;20073;-91
2022/03/13 10:19:18;;;;;;;22.85;13.45;;;;;;;;;;6194700;23;20005;-90
2022/03/13 10:22:03;;;;;;;21.08;12.75;;;;;;;;;;6220832;23;20019;-89
2022/03/13 10:24:29;;;;;;;41.13;19.17;;;;;;;;;;6220957;23;20000;-88
2022/03/13 10:27:16;;;;;;;28.95;15.80;;;;;;;;;;6221462;23;20080;-89
2022/03/13 10:29:42;;;;;;;85.78;31.95;;;;;;;;;;6220493;23;20076;-90
2022/03/13 10:32:09;;;;;;;27.75;15.43;;;;;;;;;;6220768;23;20039;-87
2022/03/13 10:34:36;;;;;;;33.60;16.42;;;;;;;;;;6194804;23;20040;-90
2022/03/13 10:37:02;;;;;;;24.65;13.75;;;;;;;;;;6195010;23;20031;-90
2022/03/13 10:39:29;;;;;;;27.08;16.10;;;;;;;;;;6220974;23;20008;-87
2022/03/13 10:42:04;;;;;;;49.38;24.65;;;;;;;;;;6221340;23;19997;-89
2022/03/13 10:44:38;;;;;;;26.38;15.40;;;;;;;;;;6220998;23;20001;-89
2022/03/13 10:47:08;;;;;;;24.63;14.35;;;;;;;;;;6194084;23;20008;-88
2022/03/13 10:49:40;;;;;;;20.17;12.77;;;;;;;;;;6221203;23;20027;-89
2022/03/13 10:52:06;;;;;;;;;;;;;;;;;;6221811;23;20403;-88
2022/03/13 10:54:37;;;;;;;21.08;12.07;;;;;;;;;;6220743;23;19923;-86
2022/03/13 10:57:13;;;;;;;29.92;16.77;;;;;;;;;;6221118;23;20024;-86
2022/03/13 10:59:43;;;;;;;22.05;14.00;;;;;;;;;;6194437;23;20087;-88
2022/03/13 11:02:12;;;;;;;24.27;13.80;;;;;;;;;;6221008;23;20055;-87
2022/03/13 11:04:45;;;;;;;29.35;17.77;;;;;;;;;;6220667;23;20383;-87
2022/03/13 11:07:11;;;;;;;28.98;16.40;;;;;;;;;;6220612;23;20306;-88
2022/03/13 11:09:37;;;;;;;34.25;18.75;;;;;;;;;;6221108;23;20256;-87
2022/03/13 11:12:06;;;;;;;22.85;14.75;;;;;;;;;;6221107;23;20229;-87
2022/03/13 11:14:34;;;;;;;31.45;19.00;;;;;;;;;;6220576;23;20047;-87
2022/03/13 11:17:01;;;;;;;34.30;20.70;;;;;;;;;;6220923;23;20004;-87
2022/03/13 11:19:28;;;;;;;36.28;19.33;;;;;;;;;;6221052;23;20012;-87
2022/03/13 11:21:55;;;;;;;35.40;18.05;;;;;;;;;;6194687;23;20083;-87
2022/03/13 11:24:23;;;;;;;17.58;11.48;;;;;;;;;;6220553;23;20001;-87
2022/03/13 11:26:50;;;;;;;23.02;14.05;;;;;;;;;;6220934;23;19997;-87
2022/03/13 11:29:36;;;;;;;20.02;12.00;;;;;;;;;;6221047;23;20008;-87
2022/03/13 11:32:22;;;;;;;20.85;12.48;;;;;;;;;;6220293;23;20020;-87
2022/03/13 11:35:15;;;;;;;19.98;12.05;;;;;;;;;;6195788;23;20059;-87
2022/03/13 11:37:42;;;;;;;20.65;12.40;;;;;;;;;;6222327;23;20001;-86
2022/03/13 11:43:12;;;;;;;21.70;13.40;;;;;;;;;;6222245;23;20031;-88
2022/03/13 11:45:39;;;;;;;17.75;12.35;;;;;;;;;;6222536;23;20004;-87
2022/03/13 11:48:05;;;;;;;22.00;12.88;;;;;;;;;;6222374;23;20055;-87
2022/03/13 11:50:51;;;;;;;24.30;14.43;;;;;;;;;;6196195;23;20096;-86
2022/03/13 11:53:20;;;;;;;19.60;12.05;;;;;;;;;;6222361;23;20005;-86
2022/03/13 11:56:10;;;;;;;25.30;15.40;;;;;;;;;;6171217;23;20004;-86
2022/03/13 11:58:40;;;;;;;29.80;17.90;;;;;;;;;;6221988;23;20011;-87
2022/03/13 12:01:12;;;;;;;28.77;17.13;;;;;;;;;;6222606;23;20371;-87
2022/03/13 12:03:38;;;;;;;19.60;12.32;;;;;;;;;;6223011;23;20263;-87
2022/03/13 12:06:05;;;;;;;19.48;13.13;;;;;;;;;;6195520;23;20439;-88
2022/03/13 12:08:50;;;;;;;23.05;12.85;;;;;;;;;;6221609;23;20047;-87
2022/03/13 12:11:53;;;;;;;24.02;13.43;;;;;;;;;;6222015;23;20426;-87
2022/03/13 12:14:19;;;;;;;;;;;;;;;;;;6222946;23;20012;-86
2022/03/13 12:16:46;;;;;;;32.60;13.18;;;;;;;;;;6195692;23;19901;-85
2022/03/13 12:19:13;;;;;;;23.30;13.57;;;;;;;;;;6220483;23;20061;-85
2022/03/13 12:21:43;;;;;;;20.58;13.68;;;;;;;;;;6221848;23;20001;-91
2022/03/13 12:24:10;;;;;;;22.80;14.23;;;;;;;;;;6194909;23;20083;-89
2022/03/13 12:26:38;;;;;;;23.17;13.07;;;;;;;;;;6195371;23;20028;-88
2022/03/13 12:29:04;;;;;;;22.35;14.18;;;;;;;;;;6222353;23;20005;-87
2022/03/13 12:31:38;;;;;;;30.30;15.40;;;;;;;;;;6221753;23;20005;-89
2022/03/13 12:34:04;;;;;;;29.08;14.82;;;;;;;;;;6195373;23;20008;-89
2022/03/13 12:36:34;;;;;;;22.98;12.45;;;;;;;;;;6221880;23;20390;-89
2022/03/13 12:39:00;;;;;;;27.17;13.50;;;;;;;;;;6221769;23;20013;-88
2022/03/13 12:41:45;;;;;;;27.88;14.13;;;;;;;;;;6221864;23;20001;-90
2022/03/13 12:44:12;;;;;;;23.85;14.68;;;;;;;;;;6222190;23;20008;-90
2022/03/13 12:46:39;;;;;;;19.48;13.57;;;;;;;;;;6195405;23;20016;-90
2022/03/13 12:49:07;;;;;;;17.08;11.13;;;;;;;;;;6195648;23;20004;-90
2022/03/13 12:51:41;;;;;;;19.55;11.63;;;;;;;;;;6222245;23;20001;-89
2022/03/13 12:54:25;;;;;;;20.05;13.02;;;;;;;;;;6221892;23;20004;-90
2022/03/13 12:57:10;;;;;;;18.80;11.55;;;;;;;;;;6194634;23;20091;-89
2022/03/13 12:59:41;;;;;;;16.67;11.30;;;;;;;;;;6221313;23;20028;-90
2022/03/13 13:02:16;;;;;;;18.02;11.55;;;;;;;;;;6221497;23;20049;-89
2022/03/13 13:05:03;;;;;;;25.45;13.88;;;;;;;;;;6194814;23;20020;-89
2022/03/13 13:07:36;;;;;;;21.30;11.75;;;;;;;;;;6221495;23;20079;-90
2022/03/13 13:13:08;;;;;;;19.67;11.73;;;;;;;;;;6221662;23;20054;-89
2022/03/13 13:15:34;;;;;;;15.20;10.57;;;;;;;;;;6221394;23;20008;-89
2022/03/13 13:18:00;;;;;;;20.88;11.05;;;;;;;;;;6222007;23;20000;-90
2022/03/13 13:20:28;;;;;;;20.48;11.60;;;;;;;;;;6221952;23;20023;-91
2022/03/13 13:23:12;;;;;;;16.75;10.75;;;;;;;;;;6221597;23;20012;-90
2022/03/13 13:31:45;;;;;;;19.45;11.00;;;;;;;;;;6221241;23;20027;-89
2022/03/13 13:34:15;;;;;;;18.55;11.82;;;;;;;;;;6221628;23;20096;-89
2022/03/13 13:36:41;;;;;;;18.08;11.48;;;;;;;;;;6221300;23;20304;-91
2022/03/13 13:39:08;;;;;;;18.27;12.02;;;;;;;;;;6221647;23;20024;-89
2022/03/13 13:41:34;;;;;;;14.35;9.45;;;;;;;;;;6221056;23;20367;-89
2022/03/13 13:44:03;;;;;;;15.82;9.27;;;;;;;;;;6221624;23;20016;-90
2022/03/13 13:46:32;;;;;;;13.63;9.20;;;;;;;;;;6221480;23;20003;-89
2022/03/13 13:48:58;;;;;;;14.65;9.38;;;;;;;;;;6220968;23;20008;-90
2022/03/13 13:51:24;;;;;;;24.95;14.60;;;;;;;;;;6221368;23;20000;-88
2022/03/13 13:53:55;;;;;;;13.02;9.18;;;;;;;;;;6195131;23;20052;-88
2022/03/13 13:56:23;;;;;;;13.70;8.57;;;;;;;;;;6221189;23;20013;-88
2022/03/13 13:58:49;;;;;;;13.60;8.75;;;;;;;;;;6221072;23;20009;-89
2022/03/13 14:01:24;;;;;;;14.35;9.70;;;;;;;;;;6194635;23;20008;-89
2022/03/13 14:03:51;;;;;;;52.42;22.55;;;;;;;;;;6220898;23;20005;-89
2022/03/13 14:06:19;;;;;;;25.52;13.30;;;;;;;;;;6221317;23;20011;-88
2022/03/13 14:08:54;;;;;;;23.10;12.32;;;;;;;;;;6194920;23;20008;-88
2022/03/13 14:18:02;;;;;;;17.65;10.32;;;;;;;;;;6221234;23;20015;-88
2022/03/13 14:20:28;;;;;;;13.73;9.35;;;;;;;;;;6194817;23;20004;-87
2022/03/13 14:22:54;;;;;;;15.65;9.27;;;;;;;;;;6194283;23;20007;-89
2022/03/13 14:25:21;;;;;;;15.90;9.05;;;;;;;;;;6221021;23;19992;-88
2022/03/13 14:27:47;;;;;;;13.57;8.77;;;;;;;;;;6221079;23;20027;-90
2022/03/13 14:30:14;;;;;;;16.63;9.82;;;;;;;;;;6194613;23;20004;-93
2022/03/13 14:32:43;;;;;;;15.93;9.75;;;;;;;;;;6221385;23;20028;-89
2022/03/13 14:35:09;;;;;;;13.77;9.65;;;;;;;;;;6221056;23;20012;-87
2022/03/13 14:37:35;;;;;;;44.90;23.90;;;;;;;;;;6221004;23;20000;-88
2022/03/13 14:40:01;;;;;;;28.38;15.77;;;;;;;;;;6220988;23;20059;-88
2022/03/13 14:42:27;;;;;;;15.73;9.63;;;;;;;;;;6220803;23;20005;-88
2022/03/13 14:44:53;;;;;;;15.18;10.00;;;;;;;;;;6220837;23;20359;-87
2022/03/13 14:47:19;;;;;;;17.02;10.50;;;;;;;;;;6220710;23;20390;-88
2022/03/13 14:49:45;;;;;;;14.20;10.57;;;;;;;;;;6194455;23;20091;-90
2022/03/13 14:52:11;;;;;;;17.30;10.38;;;;;;;;;;6221317;23;20012;-88
2022/03/13 14:54:38;;;;;;;21.92;13.00;;;;;;;;;;6194528;23;20004;-88
2022/03/13 14:57:04;;;;;;;15.70;10.18;;;;;;;;;;6220970;23;20005;-88
2022/03/13 14:59:30;;;;;;;17.58;10.57;;;;;;;;;;6194599;23;20032;-89
2022/03/13 15:01:56;;;;;;;24.15;13.85;;;;;;;;;;6221179;23;20012;-88
2022/03/13 15:04:22;;;;;;;22.77;13.25;;;;;;;;;;6220707;23;20064;-88
2022/03/13 15:06:48;;;;;;;23.85;12.45;;;;;;;;;;6221319;23;20103;-89
2022/03/13 15:09:14;;;;;;;20.13;11.05;;;;;;;;;;6196847;23;20087;-88
2022/03/13 15:11:59;;;;;;;21.88;12.45;;;;;;;;;;6222881;23;20417;-88
2022/03/13 15:14:25;;;;;;;22.80;13.23;;;;;;;;;;6222907;23;20112;-86
2022/03/13 15:16:51;;;;;;;18.42;11.60;;;;;;;;;;6222900;23;20051;-87
2022/03/13 15:19:17;;;;;;;15.75;10.32;;;;;;;;;;6223032;23;20076;-87
2022/03/13 15:21:44;;;;;;;17.35;10.40;;;;;;;;;;6196285;23;20091;-88
2022/03/13 15:24:10;;;;;;;20.02;11.25;;;;;;;;;;6222945;23;19993;-88
2022/03/13 15:26:36;;;;;;;21.67;11.60;;;;;;;;;;6223118;23;20008;-89
2022/03/13 15:29:03;;;;;;;21.02;12.07;;;;;;;;;;6222767;23;20000;-88
2022/03/13 15:31:29;;;;;;;15.18;9.93;;;;;;;;;;6222710;23;20008;-91
2022/03/13 15:33:57;;;;;;;29.00;13.10;;;;;;;;;;6195840;23;20001;-83
2022/03/13 15:36:23;;;;;;;42.50;16.77;;;;;;;;;;6222311;23;20004;-88
2022/03/13 15:38:49;;;;;;;190.15;51.47;;;;;;;;;;6222368;23;20197;-86
2022/03/13 15:41:16;;;;;;;102.50;31.13;;;;;;;;;;6196317;23;20035;-86
2022/03/13 15:43:42;;;;;;;37.25;14.90;;;;;;;;;;6222655;23;20000;-87
2022/03/13 15:46:08;;;;;;;19.42;11.68;;;;;;;;;;6196253;23;20001;-88
2022/03/13 15:48:35;;;;;;;17.92;11.23;;;;;;;;;;6222676;23;20047;-87
2022/03/13 15:51:01;;;;;;;27.52;15.63;;;;;;;;;;6222399;23;20288;-87
2022/03/13 15:53:27;;;;;;;34.47;17.67;;;;;;;;;;6222694;23;20000;-88
2022/03/13 15:55:53;;;;;;;26.73;15.43;;;;;;;;;;6196234;23;20005;-88
2022/03/13 15:58:19;;;;;;;20.20;12.48;;;;;;;;;;6222618;23;20001;-87
2022/03/13 16:00:45;;;;;;;20.88;13.30;;;;;;;;;;6221923;23;20426;-86
2022/03/13 16:03:11;;;;;;;20.98;12.52;;;;;;;;;;6221965;23;20360;-86
2022/03/13 16:05:40;;;;;;;29.17;16.55;;;;;;;;;;6222079;23;20021;-87
2022/03/13 16:08:06;;;;;;;46.00;20.92;;;;;;;;;;6221927;23;20011;-87
2022/03/13 16:10:32;;;;;;;54.15;26.15;;;;;;;;;;6221732;23;20013;-87
2022/03/13 16:12:58;;;;;;;51.67;24.50;;;;;;;;;;6222347;23;20004;-87
2022/03/13 16:15:25;;;;;;;54.88;27.08;;;;;;;;;;6195916;23;20004;-87
2022/03/13 16:17:51;;;;;;;47.65;25.67;;;;;;;;;;6222623;23;20001;-87
2022/03/13 16:20:18;;;;;;;47.38;26.05;;;;;;;;;;6221818;23;19996;-86
2022/03/13 16:22:44;;;;;;;53.10;30.65;;;;;;;;;;6222063;23;20003;-90
2022/03/13 16:25:11;;;;;;;51.45;29.50;;;;;;;;;;6195442;23;20291;-87
2022/03/13 16:27:38;;;;;;;52.13;29.27;;;;;;;;;;6222502;23;19997;-87
2022/03/13 16:30:05;;;;;;;50.70;31.95;;;;;;;;;;6222023;23;20075;-88
2022/03/13 16:32:31;;;;;;;62.22;30.98;;;;;;;;;;6221840;23;20004;-87
2022/03/13 16:34:57;;;;;;;61.53;31.52;;;;;;;;;;6221286;23;20008;-87
2022/03/13 16:37:24;;;;;;;62.88;34.60;;;;;;;;;;6221900;23;20005;-87
2022/03/13 16:39:51;;;;;;;73.93;34.15;;;;;;;;;;6221436;23;19997;-87
2022/03/13 16:45:21;;;;;;;68.28;38.20;;;;;;;;;;6222134;23;20075;-87
2022/03/13 16:47:48;;;;;;;72.22;39.50;;;;;;;;;;6222284;23;20299;-86
2022/03/13 16:50:15;;;;;;;76.00;42.33;;;;;;;;;;6221474;23;20004;-86
2022/03/13 16:52:41;;;;;;;79.55;44.97;;;;;;;;;;6222057;23;20047;-87
2022/03/13 16:55:07;;;;;;;83.88;48.20;;;;;;;;;;6220898;23;20004;-87
2022/03/13 16:57:33;;;;;;;222.18;107.35;;;;;;;;;;6222070;23;20000;-87
2022/03/13 17:00:00;;;;;;;345.13;160.13;;;;;;;;;;6220121;23;20083;-86
2022/03/13 17:02:26;;;;;;;261.25;129.00;;;;;;;;;;6194948;23;20005;-88
2022/03/13 17:04:52;;;;;;;282.85;135.68;;;;;;;;;;6221621;23;20016;-87
2022/03/13 17:07:18;;;;;;;254.60;126.05;;;;;;;;;;6195529;23;20009;-89
2022/03/13 17:09:44;;;;;;;245.77;115.65;;;;;;;;;;6221418;23;20087;-85
2022/03/13 17:15:14;;;;;;;195.73;99.93;;;;;;;;;;6221531;23;20012;-86
2022/03/13 17:17:40;;;;;;;197.75;98.72;;;;;;;;;;6221655;23;20076;-87
2022/03/13 17:20:08;;;;;;;204.85;101.15;;;;;;;;;;6221808;23;20264;-86
2022/03/13 17:22:34;;;;;;;191.85;98.68;;;;;;;;;;6221291;23;19996;-86
2022/03/13 17:25:00;;;;;;;186.68;98.00;;;;;;;;;;6221415;23;20000;-86
2022/03/13 17:27:44;;;;;;;196.10;99.25;;;;;;;;;;6221357;23;20005;-86
2022/03/13 17:30:11;;;;;;;192.05;93.88;;;;;;;;;;6221224;23;20083;-87
2022/03/13 17:32:38;;;;;;;190.02;90.30;;;;;;;;;;6221318;23;20363;-87
2022/03/13 17:35:04;;;;;;;176.32;86.55;;;;;;;;;;6221289;23;20364;-87
2022/03/13 17:37:30;;;;;;;164.60;83.38;;;;;;;;;;6194962;23;20011;-88
2022/03/13 17:39:57;;;;;;;181.50;86.90;;;;;;;;;;6220827;23;20001;-87
2022/03/13 17:42:23;;;;;;;183.20;87.82;;;;;;;;;;6221575;23;19997;-87
2022/03/13 17:44:49;;;;;;;175.02;83.90;;;;;;;;;;6221382;23;20007;-88
2022/03/13 17:47:16;;;;;;;178.25;87.60;;;;;;;;;;6221410;23;20241;-88
2022/03/13 17:49:43;;;;;;;187.85;94.22;;;;;;;;;;6221668;23;20050;-88
2022/03/13 17:52:11;;;;;;;181.85;96.68;;;;;;;;;;6220931;23;20009;-88
2022/03/13 17:54:37;;;;;;;192.00;97.47;;;;;;;;;;6221631;23;20046;-88
2022/03/13 17:57:03;;;;;;;191.05;98.32;;;;;;;;;;6221359;23;20001;-88